Peutz Valley (1458, 357, 356, 1147) Station Data

Red Flag Warning: No
Fire Weather Zone: 250
SDGE Region: Eastern
Lat/Lon: 32.859/-116.768

Observations

Time Wind Speed/Gust Temp(F) RH Fuel Moist Fuel Temp(F) Dewpt(F) Tmax(F) Tmin(F) Accum Precip 10-min Precip SL Press(mb)
5/24 8:30am 255 3 G 9 66° 66% - - 54° 66.6° 52.1° - - -
5/24 8:20am 224 2 G 4 64° 68% - - 54° 65.5° 52.1° - - -
5/24 8:10am 51 1 G 2 63° 72% - - 54° 64.8° 52.1° - - -
5/24 8:00am 250 2 G 4 61° 76% - - 53° 62.6° 52.1° - - -
5/24 7:50am 265 1 G 3 62° 72% - - 53° 62.6° 52.1° - - -
5/24 7:40am 194 1 G 2 61° 74% - - 52° 62.6° 52.1° - - -
5/24 7:30am 234 2 G 4 60° 77% - - 53° 62.6° 52.1° - - -
5/24 7:20am 279 2 G 5 59° 80% - - 53° 62.6° 52.1° - - -
5/24 7:10am 77 6 G 10 57° 89% - - 53° 62.6° 52.1° - - -
5/24 7:00am 101 2 G 4 55° 90% - - 52° 62.6° 52.1° - - -
5/24 6:50am 280 3 G 7 55° 87% - - 51° 62.6° 52.1° - - -
5/24 6:40am 275 3 G 7 56° 81% - - 50° 62.6° 52.1° - - -
5/24 6:30am 246 1 G 4 56° 74% - - 48° 62.6° 52.1° - - -
5/24 6:20am 261 2 G 7 57° 66% - - 46° 62.6° 52.1° - - -
5/24 6:10am 93 1 G 2 57° 68% - - 46° 62.6° 52.1° - - -
5/24 6:00am 109 3 G 3 56° 67% - - 45° 62.6° 52.1° - - -
5/24 5:50am 83 2 G 4 57° 66% - - 45° 62.6° 52.1° - - -
5/24 5:40am 86 2 G 3 56° 65% - - 45° 62.6° 52.1° - - -
5/24 5:30am 91 3 G 4 56° 64% - - 44° 62.6° 52.1° - - -
5/24 5:20am 88 2 G 4 55° 66% - - 44° 62.6° 52.1° - - -
5/24 5:10am 81 3 G 5 55° 68% - - 45° 62.6° 52.1° - - -
5/24 5:00am 101 2 G 3 53° 71% - - 44° 62.6° 52.1° - - -
5/24 4:50am 94 2 G 3 53° 74% - - 45° 62.6° 52.1° - - -
5/24 4:40am 88 2 G 3 54° 74% - - 46° 62.6° 52.2° - - -
5/24 4:30am 91 2 G 3 53° 76% - - 46° 62.6° 52.2° - - -
5/24 4:20am 85 2 G 4 53° 76% - - 45° 62.6° 52.2° - - -
5/24 4:10am 91 2 G 3 53° 75% - - 45° 62.6° 52.2° - - -
5/24 4:00am 89 2 G 3 54° 72% - - 45° 62.6° 52.9° - - -
5/24 3:50am 88 2 G 3 55° 70% - - 45° 62.6° 53.5° - - -
5/24 3:40am 92 2 G 3 54° 70% - - 45° 62.6° 53.5° - - -
5/24 3:30am 81 2 G 4 57° 64% - - 44° 62.6° 54.5° - - -
5/24 3:20am 95 2 G 3 56° 66% - - 45° 62.6° 54.5° - - -
5/24 3:10am 92 2 G 4 55° 68% - - 45° 62.6° 54.5° - - -
5/24 3:00am 85 3 G 4 56° 65% - - 45° 62.6° 55.2° - - -
5/24 2:50am 86 2 G 3 57° 63% - - 45° 62.6° 55.5° - - -
5/24 2:40am 95 2 G 3 56° 64% - - 45° 62.6° 55.5° - - -
5/24 2:30am 98 3 G 4 56° 66% - - 45° 62.6° 55.6° - - -
5/24 2:20am 89 3 G 4 56° 68% - - 46° 62.6° 55.6° - - -
5/24 2:10am 92 3 G 4 56° 68% - - 46° 62.6° 55.6° - - -
5/24 2:00am 84 3 G 4 57° 69% - - 47° 62.6° 56° - - -
5/24 1:50am 88 2 G 4 57° 69% - - 47° 62.6° 56° - - -
5/24 1:40am 89 2 G 4 56° 73% - - 48° 62.6° 56° - - -
5/24 1:30am 90 3 G 3 57° 75% - - 49° 62.6° 56.6° - - -
5/24 1:20am 92 2 G 3 58° 76% - - 50° 62.6° 57° - - -
5/24 1:10am 86 2 G 4 59° 75% - - 51° 62.6° 57.9° - - -
5/24 1:00am 89 2 G 3 59° 76% - - 52° 62.6° 58.8° - - -
5/24 12:50am 96 2 G 3 60° 76% - - 53° 62.6° 59.3° - - -
5/24 12:40am 92 1 G 3 60° 77% - - 53° 62.6° 59.3° - - -
5/24 12:30am 90 2 G 4 61° 74% - - 53° 62.6° 59.3° - - -
5/24 12:20am 75 2 G 5 61° 76% - - 53° 61.7° 59.3° - - -
5/24 12:10am 86 2 G 4 60° 78% - - 53° 60.9° 59.3° - - -
5/24 12:00am 87 2 G 3 60° 77% - - 53° 88.1° 56.3° - - -
5/23 11:50pm 91 2 G 3 61° 76% - - 53° 88.1° 56.3° - - -
5/23 11:40pm 97 0 G 2 62° 73% - - 53° 88.1° 56.3° - - -
5/23 11:30pm 73 2 G 4 62° 73% - - 54° 88.1° 56.3° - - -
5/23 11:20pm 227 1 G 2 63° 71% - - 53° 88.1° 56.3° - - -
5/23 11:10pm 72 4 G 6 65° 68% - - 54° 88.1° 56.3° - - -
5/23 11:00pm 83 3 G 6 63° 73% - - 54° 88.1° 56.3° - - -
5/23 10:50pm 100 2 G 3 62° 73% - - 53° 88.1° 56.3° - - -
5/23 10:40pm 90 2 G 4 64° 69% - - 54° 88.1° 56.3° - - -
5/23 10:30pm 60 3 G 6 66° 67% - - 54° 88.1° 56.3° - - -
5/23 10:20pm 74 4 G 6 64° 71% - - 54° 88.1° 56.3° - - -
5/23 10:10pm 90 2 G 3 63° 70% - - 54° 88.1° 56.3° - - -
5/23 10:00pm 68 2 G 4 64° 69% - - 54° 88.1° 56.3° - - -
5/23 9:50pm 77 3 G 4 65° 68% - - 54° 88.1° 56.3° - - -
5/23 9:40pm 75 3 G 5 65° 68% - - 54° 88.1° 56.3° - - -
5/23 9:30pm 88 3 G 4 65° 68% - - 54° 88.1° 56.3° - - -
5/23 9:20pm 77 3 G 4 66° 65% - - 54° 88.1° 56.3° - - -
5/23 9:10pm 75 4 G 5 66° 65% - - 54° 88.1° 56.3° - - -
5/23 9:00pm 79 2 G 4 66° 65% - - 54° 88.1° 56.3° - - -
5/23 8:50pm 79 3 G 5 67° 65% - - 54° 88.1° 56.3° - - -
5/23 8:40pm 86 2 G 5 67° 63% - - 55° 88.1° 56.3° - - -
5/23 8:30pm 82 3 G 5 68° 62% - - 55° 88.1° 56.3° - - -
5/23 8:20pm 75 3 G 5 69° 62% - - 55° 88.1° 56.3° - - -
5/23 8:10pm 76 2 G 3 69° 62% - - 55° 88.1° 56.3° - - -
5/23 8:00pm 79 3 G 4 70° 60% - - 55° 88.1° 56.3° - - -
5/23 7:50pm 113 1 G 3 72° 55% - - 55° 88.1° 56.3° - - -
5/23 7:40pm 197 1 G 3 74° 52% - - 55° 88.1° 56.3° - - -
5/23 7:30pm 237 1 G 2 75° 50% - - 55° 88.1° 56.3° - - -
5/23 7:20pm 259 2 G 5 75° 49% - - 55° 88.1° 56.3° - - -
5/23 7:10pm 264 3 G 6 76° 48% - - 55° 88.1° 56.3° - - -
5/23 7:00pm 267 5 G 10 77° 46% - - 54° 88.1° 56.3° - - -
5/23 6:50pm 271 4 G 8 78° 44% - - 54° 88.1° 56.3° - - -
5/23 6:40pm 262 5 G 9 79° 42% - - 54° 88.1° 56.3° - - -
5/23 6:30pm 268 6 G 9 80° 39% - - 53° 88.1° 56.3° - - -
5/23 6:20pm 269 6 G 10 81° 37% - - 52° 88.1° 56.3° - - -
5/23 6:10pm 257 6 G 10 82° 35% - - 52° 88.1° 56.3° - - -
5/23 6:00pm 266 6 G 10 83° 34% - - 52° 88.1° 56.3° - - -
5/23 5:50pm 272 6 G 10 84° 35% - - 53° 88.1° 56.3° - - -
5/23 5:40pm 259 6 G 11 84° 37% - - 54° 88.1° 56.3° - - -
5/23 5:30pm 262 7 G 11 84° 38% - - 55° 88.1° 56.3° - - -
5/23 5:20pm 258 5 G 9 85° 37% - - 56° 88.1° 56.3° - - -
5/23 5:10pm 243 5 G 8 84° 40% - - 56° 88.1° 56.3° - - -
5/23 5:00pm 251 5 G 8 83° 40% - - 56° 88.1° 56.3° - - -
5/23 4:50pm 250 5 G 8 83° 40% - - 56° 88.1° 56.3° - - -
5/23 4:40pm 241 5 G 9 83° 41% - - 57° 88.1° 56.3° - - -
5/23 4:30pm 248 6 G 10 82° 41% - - 56° 88.1° 56.3° - - -
5/23 4:20pm 249 4 G 10 83° 41% - - 57° 88.1° 56.3° - - -
5/23 4:10pm 247 3 G 5 82° 41% - - 56° 88.1° 56.3° - - -
5/23 4:00pm 265 4 G 7 81° 43% - - 56° 88.1° 56.3° - - -
5/23 3:50pm 249 4 G 8 81° 43% - - 56° 88.1° 56.3° - - -
5/23 3:40pm 245 5 G 8 81° 41% - - 55° 88.1° 56.3° - - -
5/23 3:30pm 263 5 G 8 81° 38% - - 53° 88.1° 56.3° - - -
5/23 3:20pm 267 4 G 9 81° 43% - - 56° 88.1° 56.3° - - -
5/23 3:10pm 257 3 G 8 80° 47% - - 58° 88.1° 56.3° - - -
5/23 3:00pm 278 6 G 10 80° 48% - - 59° 88.1° 56.3° - - -
5/23 2:50pm 286 5 G 9 80° 48% - - 59° 88.1° 56.3° - - -
5/23 2:40pm 278 5 G 9 79° 49% - - 59° 88.1° 56.3° - - -
5/23 2:30pm 268 5 G 11 79° 49% - - 59° 88.1° 56.3° - - -
5/23 2:20pm 266 6 G 10 80° 48% - - 59° 88.1° 56.3° - - -
5/23 2:10pm 269 6 G 9 80° 49% - - 59° 88.1° 56.3° - - -
5/23 2:00pm 271 6 G 11 80° 49% - - 59° 88.1° 56.3° - - -
5/23 1:50pm 268 6 G 10 80° 48% - - 59° 88.1° 56.3° - - -
5/23 1:40pm 265 6 G 12 80° 48% - - 59° 88.1° 56.3° - - -
5/23 1:30pm 269 5 G 11 81° 47% - - 59° 88.1° 56.3° - - -
5/23 1:20pm 241 5 G 10 81° 47% - - 59° 88.1° 56.3° - - -
5/23 1:10pm 267 7 G 12 80° 48% - - 58° 88.1° 56.3° - - -
5/23 1:00pm 251 5 G 9 80° 47% - - 58° 88.1° 56.3° - - -
5/23 12:50pm 262 8 G 13 81° 46% - - 58° 88.1° 56.3° - - -
5/23 12:40pm 255 8 G 13 82° 43% - - 58° 88.1° 56.3° - - -
5/23 12:30pm 243 6 G 14 83° 42% - - 57° 88.1° 56.3° - - -
5/23 12:20pm 260 8 G 15 84° 37% - - 55° 88.1° 56.3° - - -
5/23 12:10pm 265 7 G 13 86° 29% - - 50° 88.1° 56.3° - - -
5/23 12:00pm 257 6 G 10 86° 30% - - 51° 88.1° 56.3° - - -
5/23 11:50am 271 5 G 10 86° 30% - - 51° 88.1° 56.3° - - -
5/23 11:40am 263 6 G 10 87° 30% - - 51° 88.1° 56.3° - - -
5/23 11:30am 261 6 G 10 87° 28% - - 49° 88.1° 56.3° - - -
5/23 11:20am 254 6 G 10 87° 27% - - 49° 88.1° 56.3° - - -
5/23 11:10am 252 5 G 9 87° 25% - - 47° 88.1° 56.3° - - -
5/23 11:00am 246 4 G 7 87° 23% - - 45° 87.6° 56.3° - - -
5/23 10:50am 241 4 G 7 86° 22% - - 44° 87° 56.3° - - -
5/23 10:40am 249 4 G 6 86° 24% - - 44° 86.3° 56.3° - - -
5/23 10:30am 242 4 G 6 85° 26% - - 45° 85.3° 56.3° - - -
5/23 10:20am 234 3 G 5 84° 26% - - 46° 84.7° 56.3° - - -
5/23 10:10am 247 3 G 5 83° 29% - - 47° 83.6° 56.3° - - -
5/23 10:00am 241 3 G 5 83° 31% - - 49° 83.6° 56.3° - - -
5/23 9:50am 258 2 G 4 83° 31% - - 49° 83.6° 56.3° - - -
5/23 9:40am 241 2 G 3 81° 32% - - 48° 81.8° 56.3° - - -
5/23 9:30am 237 2 G 3 80° 32% - - 47° 80.4° 56.3° - - -
5/23 9:20am 216 1 G 2 78° 34% - - 48° 79.4° 56.3° - - -
5/23 9:10am 250 3 G 4 77° 36% - - 49° 78.3° 56.3° - - -
5/23 9:00am 243 3 G 4 78° 36% - - 49° 78.3° 56.3° - - -
5/23 8:50am 225 1 G 2 77° 37% - - 49° 78.2° 56.3° - - -
5/23 8:40am 209 0 G 2 77° 40% - - 51° 77.9° 56.3° - - -
5/23 8:30am 117 0 G 2 74° 45% - - 52° 76° 56.3° - - -
5/23 8:20am 252 1 G 2 72° 47% - - 51° 75.9° 56.3° - - -
5/23 8:10am 209 1 G 2 74° 44% - - 50° 75.9° 56.3° - - -
5/23 8:00am 100 1 G 2 74° 42% - - 49° 75.9° 56.3° - - -
5/23 7:50am 140 0 G 1 74° 39% - - 47° 75.9° 56.3° - - -
5/23 7:40am 73 1 G 3 70° 46% - - 49° 72.7° 56.3° - - -
5/23 7:30am 82 2 G 3 67° 56% - - 51° 69.1° 56.3° - - -
5/23 7:20am 91 2 G 3 65° 56% - - 49° 66.6° 56.3° - - -
5/23 7:10am 92 2 G 3 66° 53% - - 48° 66.6° 56.3° - - -
5/23 7:00am 87 2 G 4 64° 54% - - 47° 65.8° 56.3° - - -
5/23 6:50am 100 2 G 4 63° 53% - - 46° 64.2° 56.3° - - -
5/23 6:40am 95 3 G 4 63° 52% - - 45° 64° 56.3° - - -
5/23 6:30am 89 3 G 5 63° 51% - - 44° 64° 56.3° - - -
5/23 6:20am 91 3 G 5 61° 52% - - 43° 64° 56.3° - - -
5/23 6:10am 84 3 G 5 62° 51% - - 43° 64° 56.3° - - -
5/23 6:00am 97 3 G 4 61° 53% - - 43° 64° 56.3° - - -